createdAt,value
2023-04-07T00:00:29.860Z,1017.00
2023-04-07T00:00:59.800Z,1017.00
2023-04-07T00:01:31.024Z,1017.00
2023-04-07T00:02:02.206Z,1017.00
2023-04-07T00:02:33.230Z,1017.00
2023-04-07T00:03:04.169Z,1016.90
2023-04-07T00:03:35.245Z,1016.90
2023-04-07T00:04:06.251Z,1016.90
2023-04-07T00:04:37.376Z,1016.90
2023-04-07T00:05:08.855Z,1016.90
2023-04-07T00:05:39.140Z,1016.90
2023-04-07T00:06:09.819Z,1016.90
2023-04-07T00:06:40.811Z,1016.90
2023-04-07T00:07:12.268Z,1017.10
2023-04-07T00:07:55.003Z,1017.10
2023-04-07T00:08:13.780Z,1016.80
2023-04-07T00:08:44.807Z,1016.80
2023-04-07T00:09:15.866Z,1016.80
2023-04-07T00:09:46.810Z,1016.80
2023-04-07T00:10:19.005Z,1016.69
2023-04-07T00:10:49.025Z,1016.69
2023-04-07T00:11:20.001Z,1017.00
2023-04-07T00:11:51.212Z,1017.00
2023-04-07T00:12:22.041Z,1016.90
2023-04-07T00:12:53.221Z,1016.90
2023-04-07T00:13:24.122Z,1016.90
2023-04-07T00:13:55.611Z,1016.90
2023-04-07T00:14:25.962Z,1016.80
2023-04-07T00:14:57.205Z,1016.80
2023-04-07T00:15:29.089Z,1016.69
2023-04-07T00:15:59.246Z,1016.80
2023-04-07T00:16:30.066Z,1016.80
2023-04-07T00:17:00.964Z,1016.69
2023-04-07T00:17:32.011Z,1016.69
2023-04-07T00:18:03.088Z,1016.69
2023-04-07T00:18:34.011Z,1016.69
2023-04-07T00:19:04.972Z,1016.80
2023-04-07T00:19:35.985Z,1016.80
2023-04-07T00:20:07.301Z,1016.80
2023-04-07T00:20:39.712Z,1016.80
2023-04-07T00:21:09.226Z,1017.00
2023-04-07T00:21:40.946Z,1017.00
2023-04-07T00:22:10.812Z,1017.00
2023-04-07T00:22:42.071Z,1017.00
2023-04-07T00:23:12.946Z,1016.69
2023-04-07T00:23:44.067Z,1016.69
2023-04-07T00:24:18.524Z,1016.90
2023-04-07T00:24:46.179Z,1016.90
2023-04-07T00:25:17.513Z,1016.69
2023-04-07T00:25:47.788Z,1016.69
2023-04-07T00:26:19.441Z,1016.80
2023-04-07T00:26:50.090Z,1016.80
2023-04-07T00:27:21.248Z,1016.80
2023-04-07T00:27:51.907Z,1016.80
2023-04-07T00:28:22.850Z,1016.80
2023-04-07T00:28:53.870Z,1016.80
2023-04-07T00:29:25.254Z,1016.49
2023-04-07T00:29:56.011Z,1016.49
2023-04-07T00:30:28.192Z,1016.69
2023-04-07T00:30:58.173Z,1016.69
2023-04-07T00:31:29.108Z,1016.69
2023-04-07T00:32:00.253Z,1016.59
2023-04-07T00:32:31.116Z,1016.59
2023-04-07T00:33:02.126Z,1016.90
2023-04-07T00:33:33.169Z,1016.90
2023-04-07T00:34:04.090Z,1016.69
2023-04-07T00:34:35.187Z,1016.69
2023-04-07T00:35:06.189Z,1016.49
2023-04-07T00:35:37.203Z,1016.49
2023-04-07T00:36:08.070Z,1016.39
2023-04-07T00:36:39.185Z,1016.39
2023-04-07T00:37:10.080Z,1016.49
2023-04-07T00:37:41.064Z,1016.49
2023-04-07T00:38:12.139Z,1016.59
2023-04-07T00:38:43.052Z,1016.59
2023-04-07T00:39:14.201Z,1016.49
2023-04-07T00:39:45.243Z,1016.49
2023-04-07T00:40:16.703Z,1016.49
2023-04-07T00:40:47.058Z,1016.49
2023-04-07T00:41:17.965Z,1016.69
2023-04-07T00:41:49.220Z,1016.69
2023-04-07T00:42:20.192Z,1016.39
2023-04-07T00:42:51.159Z,1016.39
2023-04-07T00:43:22.180Z,1016.80
2023-04-07T00:43:53.711Z,1016.80
2023-04-07T00:44:24.122Z,1016.59
2023-04-07T00:44:55.200Z,1016.59
2023-04-07T00:45:26.808Z,1016.29
2023-04-07T00:45:57.310Z,1016.29
2023-04-07T00:46:28.227Z,1016.59
2023-04-07T00:46:59.340Z,1016.29
2023-04-07T00:47:30.013Z,1016.29
2023-04-07T00:48:01.279Z,1016.39
2023-04-07T00:48:32.305Z,1016.39
2023-04-07T00:49:03.186Z,1016.29
2023-04-07T00:49:34.273Z,1016.29
2023-04-07T00:50:05.739Z,1016.39
2023-04-07T00:50:36.383Z,1016.39
2023-04-07T00:51:07.579Z,1016.49
2023-04-07T00:51:38.174Z,1016.49
2023-04-07T00:52:09.980Z,1016.19
2023-04-07T00:52:40.180Z,1016.19
2023-04-07T00:53:12.405Z,1016.39
2023-04-07T00:53:42.290Z,1016.39
2023-04-07T00:54:12.926Z,1016.39
2023-04-07T00:54:43.922Z,1016.39
2023-04-07T00:55:15.921Z,1016.49
2023-04-07T00:55:46.361Z,1016.49
2023-04-07T00:56:17.501Z,1016.29
2023-04-07T00:56:48.238Z,1016.29
2023-04-07T00:57:19.379Z,1016.19
2023-04-07T00:57:50.539Z,1016.19
2023-04-07T00:58:21.583Z,1016.29
2023-04-07T00:58:52.595Z,1016.29
2023-04-07T00:59:23.210Z,1016.19
2023-04-07T00:59:54.422Z,1016.19
2023-04-07T01:00:26.210Z,1016.39
2023-04-07T01:00:56.329Z,1016.39
2023-04-07T01:01:27.656Z,1016.29
2023-04-07T01:01:58.229Z,1016.19
2023-04-07T01:02:29.781Z,1016.19
2023-04-07T01:03:00.541Z,1016.19
2023-04-07T01:03:31.867Z,1016.19
2023-04-07T01:04:02.184Z,1016.39
2023-04-07T01:04:33.419Z,1016.39
2023-04-07T01:05:04.693Z,1016.29
2023-04-07T01:05:34.978Z,1016.29
2023-04-07T01:06:06.278Z,1016.19
2023-04-07T01:06:37.714Z,1016.19
2023-04-07T01:07:08.229Z,1016.29
2023-04-07T01:07:39.278Z,1016.29
2023-04-07T01:08:10.420Z,1016.19
2023-04-07T01:08:41.029Z,1016.19
2023-04-07T01:09:12.022Z,1016.08
2023-04-07T01:09:43.182Z,1016.08
2023-04-07T01:10:14.939Z,1016.19
2023-04-07T01:10:45.432Z,1016.19
2023-04-07T01:11:16.246Z,1016.08
2023-04-07T01:11:47.287Z,1016.08
2023-04-07T01:12:18.000Z,1016.08
2023-04-07T01:12:49.399Z,1016.08
2023-04-07T01:13:20.287Z,1016.19
2023-04-07T01:13:51.508Z,1016.19
2023-04-07T01:14:22.784Z,1016.29
2023-04-07T01:14:53.319Z,1016.29
2023-04-07T01:15:25.343Z,1016.19
2023-04-07T01:15:55.317Z,1016.19
2023-04-07T01:16:26.086Z,1016.29
2023-04-07T01:16:57.171Z,1016.29
2023-04-07T01:17:28.420Z,1015.92
2023-04-07T01:17:59.906Z,1016.29
2023-04-07T01:18:30.145Z,1016.29
2023-04-07T01:19:01.046Z,1015.98
2023-04-07T01:19:32.059Z,1015.98
2023-04-07T01:20:03.165Z,1015.98
2023-04-07T01:20:34.476Z,1015.98
2023-04-07T01:21:05.296Z,1016.08
2023-04-07T01:21:36.261Z,1016.08
2023-04-07T01:22:07.277Z,1016.08
2023-04-07T01:22:38.377Z,1016.08
2023-04-07T01:23:09.341Z,1016.19
2023-04-07T01:23:42.246Z,1016.19
2023-04-07T01:24:11.467Z,1016.19
2023-04-07T01:24:43.596Z,1016.19
2023-04-07T01:25:13.766Z,1016.08
2023-04-07T01:25:44.000Z,1016.08
2023-04-07T01:26:15.437Z,1015.92
2023-04-07T01:26:46.327Z,1015.92
2023-04-07T01:27:17.125Z,1016.08
2023-04-07T01:27:48.363Z,1016.08
2023-04-07T01:28:19.511Z,1015.81
2023-04-07T01:28:50.236Z,1015.81
2023-04-07T01:29:21.362Z,1015.92
2023-04-07T01:29:52.462Z,1015.92
2023-04-07T01:30:24.320Z,1015.81
2023-04-07T01:30:54.255Z,1015.81
2023-04-07T01:31:25.111Z,1015.92
2023-04-07T01:31:56.870Z,1015.92
2023-04-07T01:32:27.203Z,1015.71
2023-04-07T01:32:58.452Z,1015.92
2023-04-07T01:33:29.371Z,1015.92
2023-04-07T01:34:00.410Z,1015.98
2023-04-07T01:34:31.476Z,1015.98
2023-04-07T01:35:02.687Z,1015.98
2023-04-07T01:35:33.098Z,1015.98
2023-04-07T01:36:04.483Z,1015.98
2023-04-07T01:36:35.739Z,1015.98
2023-04-07T01:37:06.931Z,1015.92
2023-04-07T01:37:37.127Z,1015.92
2023-04-07T01:38:08.398Z,1015.81
2023-04-07T01:38:39.463Z,1015.81
2023-04-07T01:39:10.467Z,1015.92
2023-04-07T01:39:41.286Z,1015.92
2023-04-07T01:40:12.939Z,1015.98
2023-04-07T01:40:43.457Z,1015.98
2023-04-07T01:41:14.546Z,1015.98
2023-04-07T01:41:45.123Z,1015.98
2023-04-07T01:42:16.759Z,1015.92
2023-04-07T01:42:47.105Z,1015.92
2023-04-07T01:43:18.199Z,1015.81
2023-04-07T01:43:49.306Z,1015.81
2023-04-07T01:44:20.446Z,1015.98
2023-04-07T01:44:51.480Z,1015.98
2023-04-07T01:45:23.301Z,1015.98
2023-04-07T01:45:53.132Z,1015.98
2023-04-07T01:46:24.458Z,1015.98
2023-04-07T01:46:55.238Z,1015.98
2023-04-07T01:47:26.373Z,1015.92
2023-04-07T01:47:57.242Z,1015.92
2023-04-07T01:48:28.341Z,1015.81
2023-04-07T01:48:59.622Z,1016.08
2023-04-07T01:49:30.491Z,1016.08
2023-04-07T01:50:01.553Z,1015.98
2023-04-07T01:50:32.101Z,1015.98
2023-04-07T01:51:03.312Z,1016.08
2023-04-07T01:51:34.783Z,1016.08
2023-04-07T01:52:05.398Z,1016.08
2023-04-07T01:52:36.579Z,1016.08
2023-04-07T01:53:07.166Z,1015.98
2023-04-07T01:53:38.533Z,1015.98
2023-04-07T01:54:09.340Z,1015.81
2023-04-07T01:54:40.562Z,1015.81
2023-04-07T01:55:12.572Z,1015.81
2023-04-07T01:55:42.473Z,1015.81
2023-04-07T01:56:14.303Z,1015.92
2023-04-07T01:56:44.432Z,1015.92
2023-04-07T01:57:15.547Z,1015.71
2023-04-07T01:57:46.381Z,1015.71
2023-04-07T01:58:17.593Z,1015.71
2023-04-07T01:58:48.580Z,1015.71
2023-04-07T01:59:19.101Z,1015.51
2023-04-07T01:59:50.529Z,1015.51
2023-04-07T02:00:22.786Z,1015.81
2023-04-07T02:00:52.562Z,1015.81
2023-04-07T02:01:23.394Z,1015.71
2023-04-07T02:01:54.541Z,1015.71
2023-04-07T02:02:25.334Z,1015.71
2023-04-07T02:02:56.446Z,1015.71
2023-04-07T02:03:27.679Z,1015.71
2023-04-07T02:03:58.929Z,1015.81
2023-04-07T02:04:29.210Z,1015.81
2023-04-07T02:05:00.781Z,1015.81
2023-04-07T02:05:31.798Z,1015.81
2023-04-07T02:06:02.169Z,1015.71
2023-04-07T02:06:33.340Z,1015.71
2023-04-07T02:07:04.465Z,1015.92
2023-04-07T02:07:35.549Z,1015.92
2023-04-07T02:08:06.205Z,1015.81
2023-04-07T02:08:37.423Z,1015.81
2023-04-07T02:09:08.562Z,1015.81
2023-04-07T02:09:39.537Z,1015.81
2023-04-07T02:10:11.050Z,1015.92
2023-04-07T02:10:41.804Z,1015.92
2023-04-07T02:11:12.424Z,1015.71
2023-04-07T02:11:43.130Z,1015.71
2023-04-07T02:12:14.658Z,1015.71
2023-04-07T02:12:45.501Z,1015.71
2023-04-07T02:13:16.304Z,1015.81
2023-04-07T02:13:47.281Z,1015.81
2023-04-07T02:14:18.534Z,1015.81
2023-04-07T02:14:49.582Z,1015.81
2023-04-07T02:15:21.283Z,1015.61
2023-04-07T02:15:51.352Z,1015.61
2023-04-07T02:16:22.461Z,1015.71
2023-04-07T02:16:53.620Z,1015.71
2023-04-07T02:17:24.664Z,1015.51
2023-04-07T02:17:55.681Z,1015.51
2023-04-07T02:18:26.381Z,1015.41
2023-04-07T02:18:58.369Z,1015.61
2023-04-07T02:19:28.201Z,1015.61
2023-04-07T02:19:59.454Z,1015.41
2023-04-07T02:20:30.818Z,1015.41
2023-04-07T02:21:01.704Z,1015.20
2023-04-07T02:21:32.762Z,1015.20
2023-04-07T02:22:03.229Z,1015.71
2023-04-07T02:22:34.900Z,1015.71
2023-04-07T02:23:05.609Z,1015.31
2023-04-07T02:23:36.501Z,1015.31
2023-04-07T02:24:07.588Z,1015.51
2023-04-07T02:24:38.650Z,1015.51
2023-04-07T02:25:09.633Z,1015.51
2023-04-07T02:25:40.529Z,1015.51
2023-04-07T02:26:11.650Z,1015.51
2023-04-07T02:26:43.267Z,1015.51
2023-04-07T02:27:13.690Z,1015.31
2023-04-07T02:27:45.503Z,1015.31
2023-04-07T02:28:15.180Z,1015.51
2023-04-07T02:28:46.289Z,1015.51
2023-04-07T02:29:17.660Z,1015.41
2023-04-07T02:29:48.341Z,1015.41
2023-04-07T02:30:20.176Z,1015.41
2023-04-07T02:30:50.665Z,1015.41
2023-04-07T02:31:21.551Z,1015.51
2023-04-07T02:31:52.317Z,1015.51
2023-04-07T02:32:23.389Z,1015.51
2023-04-07T02:32:54.304Z,1015.51
2023-04-07T02:33:25.281Z,1015.51
2023-04-07T02:33:56.666Z,1015.51
2023-04-07T02:34:27.619Z,1015.41
2023-04-07T02:34:58.660Z,1015.31
2023-04-07T02:35:29.842Z,1015.31
2023-04-07T02:36:00.424Z,1015.20
2023-04-07T02:36:31.529Z,1015.20
2023-04-07T02:37:02.357Z,1015.31
2023-04-07T02:37:33.368Z,1015.31
2023-04-07T02:38:04.747Z,1015.31
2023-04-07T02:38:35.555Z,1015.31
2023-04-07T02:39:06.317Z,1015.31
2023-04-07T02:39:37.535Z,1015.31
2023-04-07T02:40:08.762Z,1015.51
2023-04-07T02:40:39.570Z,1015.51
2023-04-07T02:41:10.714Z,1015.31
2023-04-07T02:41:42.350Z,1015.31
2023-04-07T02:42:12.611Z,1015.51
2023-04-07T02:42:43.683Z,1015.51
2023-04-07T02:43:14.355Z,1015.51
2023-04-07T02:43:45.243Z,1015.51
2023-04-07T02:44:16.707Z,1015.41
2023-04-07T02:44:47.659Z,1015.41
2023-04-07T02:45:18.856Z,1015.31
2023-04-07T02:45:49.759Z,1015.31
2023-04-07T02:46:20.513Z,1015.31
2023-04-07T02:46:51.679Z,1015.31
2023-04-07T02:47:22.669Z,1015.31
2023-04-07T02:47:53.281Z,1015.31
2023-04-07T02:48:24.721Z,1015.31
2023-04-07T02:48:55.359Z,1015.31
2023-04-07T02:49:26.549Z,1015.31
2023-04-07T02:49:57.303Z,1015.31
2023-04-07T02:50:29.052Z,1015.20
2023-04-07T02:50:59.970Z,1015.31
2023-04-07T02:51:30.298Z,1015.31
2023-04-07T02:52:01.365Z,1015.31
2023-04-07T02:52:32.343Z,1015.31
2023-04-07T02:53:03.648Z,1015.20
2023-04-07T02:53:34.308Z,1015.20
2023-04-07T02:54:05.758Z,1015.41
2023-04-07T02:54:36.545Z,1015.41
2023-04-07T02:55:08.281Z,1015.31
2023-04-07T02:55:38.762Z,1015.31
2023-04-07T02:56:10.147Z,1015.31
2023-04-07T02:56:40.329Z,1015.31
2023-04-07T02:57:11.708Z,1015.20
2023-04-07T02:57:42.539Z,1015.20
2023-04-07T02:58:14.123Z,1015.20
2023-04-07T02:58:44.500Z,1015.20
2023-04-07T02:59:16.698Z,1015.20
2023-04-07T02:59:46.921Z,1015.20
2023-04-07T03:00:18.547Z,1015.10
2023-04-07T03:00:49.613Z,1015.10
2023-04-07T03:01:19.639Z,1015.10
2023-04-07T03:01:50.832Z,1015.10
2023-04-07T03:02:21.641Z,1015.20
2023-04-07T03:02:52.777Z,1015.20
2023-04-07T03:03:23.634Z,1015.20
2023-04-07T03:03:54.950Z,1015.20
2023-04-07T03:04:25.850Z,1015.10
2023-04-07T03:04:56.790Z,1015.10
2023-04-07T03:05:28.301Z,1015.10
2023-04-07T03:05:58.618Z,1015.10
2023-04-07T03:06:29.748Z,1015.10
2023-04-07T03:07:00.365Z,1014.90
2023-04-07T03:07:32.237Z,1014.90
2023-04-07T03:08:02.478Z,1015.20
2023-04-07T03:08:33.340Z,1015.20
2023-04-07T03:09:04.779Z,1015.20
2023-04-07T03:09:35.549Z,1015.20
2023-04-07T03:10:07.134Z,1015.20
2023-04-07T03:10:37.879Z,1015.20
2023-04-07T03:11:08.745Z,1014.90
2023-04-07T03:11:39.364Z,1014.90
2023-04-07T03:12:10.805Z,1015.00
2023-04-07T03:12:41.617Z,1015.00
2023-04-07T03:13:12.582Z,1015.10
2023-04-07T03:13:43.647Z,1015.10
2023-04-07T03:14:14.790Z,1014.90
2023-04-07T03:14:45.375Z,1014.90
2023-04-07T03:15:18.890Z,1015.10
2023-04-07T03:15:47.728Z,1015.10
2023-04-07T03:16:18.650Z,1015.00
2023-04-07T03:16:49.799Z,1015.00
2023-04-07T03:17:20.451Z,1014.90
2023-04-07T03:17:51.859Z,1014.90
2023-04-07T03:18:22.765Z,1014.80
2023-04-07T03:18:53.806Z,1014.80
2023-04-07T03:19:24.407Z,1014.80
2023-04-07T03:19:55.623Z,1014.80
2023-04-07T03:20:26.899Z,1015.00
2023-04-07T03:20:57.687Z,1015.00
2023-04-07T03:21:29.083Z,1015.00
2023-04-07T03:21:59.837Z,1014.90
2023-04-07T03:22:30.338Z,1014.90
2023-04-07T03:23:01.421Z,1015.10
2023-04-07T03:23:32.446Z,1015.10
2023-04-07T03:24:03.646Z,1014.90
2023-04-07T03:24:34.576Z,1014.90
2023-04-07T03:25:06.340Z,1014.90
2023-04-07T03:25:36.675Z,1014.90
2023-04-07T03:26:07.511Z,1015.00
2023-04-07T03:26:38.840Z,1015.00
2023-04-07T03:27:09.806Z,1014.90
2023-04-07T03:27:40.657Z,1014.90
2023-04-07T03:28:11.524Z,1014.90
2023-04-07T03:28:42.861Z,1014.90
2023-04-07T03:29:13.750Z,1015.00
2023-04-07T03:29:46.380Z,1015.00
2023-04-07T03:30:16.558Z,1015.10
2023-04-07T03:30:48.025Z,1015.10
2023-04-07T03:31:17.738Z,1014.80
2023-04-07T03:31:48.740Z,1014.80
2023-04-07T03:32:19.795Z,1014.90
2023-04-07T03:32:50.886Z,1014.90
2023-04-07T03:33:21.939Z,1015.10
2023-04-07T03:33:52.988Z,1015.10
2023-04-07T03:34:24.118Z,1014.90
2023-04-07T03:34:54.778Z,1014.90
2023-04-07T03:35:26.258Z,1014.80
2023-04-07T03:35:56.867Z,1014.80
2023-04-07T03:36:27.660Z,1014.80
2023-04-07T03:36:58.780Z,1015.00
2023-04-07T03:37:29.902Z,1015.00
2023-04-07T03:38:00.880Z,1014.80
2023-04-07T03:38:31.490Z,1014.80
2023-04-07T03:39:02.510Z,1014.90
2023-04-07T03:39:33.426Z,1014.90
2023-04-07T03:40:05.000Z,1014.90
2023-04-07T03:40:36.231Z,1014.90
2023-04-07T03:41:06.798Z,1014.80
2023-04-07T03:41:37.776Z,1014.80
2023-04-07T03:42:08.452Z,1014.80
2023-04-07T03:42:39.677Z,1014.80
2023-04-07T03:43:10.818Z,1014.70
2023-04-07T03:43:41.504Z,1014.70
2023-04-07T03:44:12.636Z,1014.90
2023-04-07T03:44:43.811Z,1014.90
2023-04-07T03:45:15.947Z,1014.70
2023-04-07T03:45:45.994Z,1014.70
2023-04-07T03:46:16.838Z,1014.70
2023-04-07T03:46:47.931Z,1014.70
2023-04-07T03:47:18.763Z,1014.80
2023-04-07T03:47:49.810Z,1014.80
2023-04-07T03:48:20.408Z,1014.59
2023-04-07T03:48:51.849Z,1014.59
2023-04-07T03:49:22.779Z,1014.90
2023-04-07T03:49:53.533Z,1014.90
2023-04-07T03:50:24.862Z,1014.59
2023-04-07T03:50:56.164Z,1014.59
2023-04-07T03:51:26.434Z,1014.90
2023-04-07T03:51:57.718Z,1014.90
2023-04-07T03:52:28.542Z,1014.90
2023-04-07T03:52:59.534Z,1014.70
2023-04-07T03:53:30.887Z,1014.70
2023-04-07T03:54:01.512Z,1014.59
2023-04-07T03:54:32.889Z,1014.59
2023-04-07T03:55:04.161Z,1014.59
2023-04-07T03:55:34.916Z,1014.59
2023-04-07T03:56:06.203Z,1014.59
2023-04-07T03:56:36.540Z,1014.59
2023-04-07T03:57:08.262Z,1014.70
2023-04-07T03:57:38.977Z,1014.70
2023-04-07T03:58:09.577Z,1014.49
2023-04-07T03:58:40.484Z,1014.49
2023-04-07T03:59:11.807Z,1014.70
2023-04-07T03:59:43.023Z,1014.70
2023-04-07T04:00:14.470Z,1014.80
2023-04-07T04:00:44.626Z,1014.80
2023-04-07T04:01:17.532Z,1014.59
2023-04-07T04:01:46.602Z,1014.59
2023-04-07T04:02:19.293Z,1014.80
2023-04-07T04:02:48.572Z,1014.80
2023-04-07T04:03:20.963Z,1014.59
2023-04-07T04:03:51.101Z,1014.59
2023-04-07T04:04:21.929Z,1014.59
2023-04-07T04:04:52.902Z,1014.59
2023-04-07T04:05:23.954Z,1014.59
2023-04-07T04:05:54.509Z,1014.59
2023-04-07T04:06:26.315Z,1014.80
2023-04-07T04:06:56.796Z,1014.80
2023-04-07T04:07:27.799Z,1014.59
2023-04-07T04:07:58.691Z,1014.59
2023-04-07T04:08:29.775Z,1014.59
2023-04-07T04:09:00.754Z,1014.70
2023-04-07T04:09:31.605Z,1014.70
2023-04-07T04:10:03.588Z,1014.70
2023-04-07T04:10:33.827Z,1014.70
2023-04-07T04:11:04.944Z,1014.29
2023-04-07T04:11:35.767Z,1014.29
2023-04-07T04:12:06.527Z,1014.29
2023-04-07T04:12:37.839Z,1014.29
2023-04-07T04:13:08.930Z,1014.59
2023-04-07T04:13:39.858Z,1014.59
2023-04-07T04:14:10.566Z,1014.59
2023-04-07T04:14:41.983Z,1014.59
2023-04-07T04:15:14.056Z,1014.70
2023-04-07T04:15:43.607Z,1014.70
2023-04-07T04:16:15.359Z,1014.70
2023-04-07T04:16:45.616Z,1014.70
2023-04-07T04:17:16.974Z,1014.59
2023-04-07T04:17:47.980Z,1014.59
2023-04-07T04:18:18.609Z,1014.80
2023-04-07T04:18:49.976Z,1014.80
2023-04-07T04:19:20.571Z,1014.70
2023-04-07T04:19:51.666Z,1014.70
2023-04-07T04:20:22.930Z,1014.59
2023-04-07T04:20:53.814Z,1014.59
2023-04-07T04:21:25.077Z,1014.70
2023-04-07T04:21:55.624Z,1014.70
2023-04-07T04:22:26.622Z,1014.59
2023-04-07T04:22:58.015Z,1014.59
2023-04-07T04:23:28.820Z,1014.49
2023-04-07T04:24:00.156Z,1014.90
2023-04-07T04:24:31.014Z,1014.90
2023-04-07T04:25:02.076Z,1014.59
2023-04-07T04:25:32.560Z,1014.59
2023-04-07T04:26:04.020Z,1014.49
2023-04-07T04:26:34.781Z,1014.49
2023-04-07T04:27:06.034Z,1014.80
2023-04-07T04:27:37.096Z,1014.80
2023-04-07T04:28:08.016Z,1014.59
2023-04-07T04:28:39.131Z,1014.59
2023-04-07T04:29:09.669Z,1014.70
2023-04-07T04:29:40.605Z,1014.70
2023-04-07T04:30:12.553Z,1014.59
2023-04-07T04:30:42.965Z,1014.59
2023-04-07T04:31:14.105Z,1014.80
2023-04-07T04:31:44.981Z,1014.80
2023-04-07T04:32:15.621Z,1014.70
2023-04-07T04:32:48.133Z,1014.70
2023-04-07T04:33:17.814Z,1014.59
2023-04-07T04:33:49.902Z,1014.59
2023-04-07T04:34:19.980Z,1014.59
2023-04-07T04:34:51.035Z,1014.59
2023-04-07T04:35:22.826Z,1014.49
2023-04-07T04:35:53.535Z,1014.49
2023-04-07T04:36:23.994Z,1014.39
2023-04-07T04:36:55.148Z,1014.39
2023-04-07T04:37:25.561Z,1014.49
2023-04-07T04:38:28.182Z,1014.49
2023-04-07T04:38:58.988Z,1014.49
2023-04-07T04:39:30.062Z,1014.49
2023-04-07T04:40:01.271Z,1014.59
2023-04-07T04:40:31.903Z,1014.59
2023-04-07T04:41:03.149Z,1014.49
2023-04-07T04:41:34.282Z,1014.49
2023-04-07T04:42:04.788Z,1014.49
2023-04-07T04:42:35.931Z,1014.49
2023-04-07T04:43:07.122Z,1014.29
2023-04-07T04:43:38.047Z,1014.29
2023-04-07T04:44:09.065Z,1014.49
2023-04-07T04:44:39.925Z,1014.49
2023-04-07T04:45:11.663Z,1014.29
2023-04-07T04:45:41.663Z,1014.29
2023-04-07T04:46:13.062Z,1014.39
2023-04-07T04:46:43.684Z,1014.39
2023-04-07T04:47:14.775Z,1014.59
2023-04-07T04:47:45.739Z,1014.59
2023-04-07T04:48:16.866Z,1014.49
2023-04-07T04:48:48.017Z,1014.49
2023-04-07T04:49:19.025Z,1014.70
2023-04-07T04:49:49.680Z,1014.70
2023-04-07T04:50:21.153Z,1014.59
2023-04-07T04:50:51.858Z,1014.59
2023-04-07T04:51:22.908Z,1014.59
2023-04-07T04:51:53.742Z,1014.59
2023-04-07T04:52:24.818Z,1014.49
2023-04-07T04:52:55.837Z,1014.49
2023-04-07T04:53:27.019Z,1014.59
2023-04-07T04:53:57.947Z,1014.59
2023-04-07T04:54:28.921Z,1014.80
2023-04-07T04:55:00.846Z,1014.49
2023-04-07T04:55:30.652Z,1014.49
2023-04-07T04:56:01.696Z,1014.70
2023-04-07T04:56:32.714Z,1014.70
2023-04-07T04:57:03.739Z,1014.49
2023-04-07T04:57:35.192Z,1014.49
2023-04-07T04:58:06.086Z,1014.59
2023-04-07T04:58:36.907Z,1014.59
2023-04-07T04:59:07.769Z,1014.70
2023-04-07T04:59:38.847Z,1014.70
2023-04-07T05:00:10.592Z,1014.59
2023-04-07T05:00:41.078Z,1014.59
2023-04-07T05:01:11.735Z,1014.39
2023-04-07T05:01:42.970Z,1014.39
2023-04-07T05:02:14.033Z,1014.49
2023-04-07T05:02:45.538Z,1014.49
2023-04-07T05:03:16.347Z,1014.80
2023-04-07T05:03:47.220Z,1014.80
2023-04-07T05:04:18.827Z,1014.59
2023-04-07T05:04:48.847Z,1014.59
2023-04-07T05:05:21.653Z,1014.70
2023-04-07T05:05:51.060Z,1014.70
2023-04-07T05:06:21.775Z,1014.59
2023-04-07T05:06:52.728Z,1014.59
2023-04-07T05:07:24.185Z,1014.70
2023-04-07T05:07:54.715Z,1014.70
2023-04-07T05:08:26.157Z,1014.49
2023-04-07T05:08:57.104Z,1014.49
2023-04-07T05:09:28.070Z,1014.49
2023-04-07T05:09:58.864Z,1014.59
2023-04-07T05:10:30.605Z,1014.59
2023-04-07T05:11:01.338Z,1014.49
2023-04-07T05:11:31.856Z,1014.49
2023-04-07T05:12:03.155Z,1014.59
2023-04-07T05:12:34.128Z,1014.59
2023-04-07T05:13:04.828Z,1014.39
2023-04-07T05:13:36.399Z,1014.39
2023-04-07T05:14:06.787Z,1014.49
2023-04-07T05:14:37.843Z,1014.49
2023-04-07T05:15:09.604Z,1014.59
2023-04-07T05:15:39.830Z,1014.59
2023-04-07T05:16:11.407Z,1014.39
2023-04-07T05:16:42.313Z,1014.39
2023-04-07T05:17:13.128Z,1014.59
2023-04-07T05:17:44.584Z,1014.59
2023-04-07T05:18:15.032Z,1014.29
2023-04-07T05:18:45.877Z,1014.29
2023-04-07T05:19:17.004Z,1014.59
2023-04-07T05:19:48.225Z,1014.59
2023-04-07T05:20:19.625Z,1014.39
2023-04-07T05:20:50.324Z,1014.39
2023-04-07T05:21:21.056Z,1014.59
2023-04-07T05:21:51.819Z,1014.59
2023-04-07T05:22:23.202Z,1014.49
2023-04-07T05:22:54.100Z,1014.49
2023-04-07T05:23:25.244Z,1014.49
2023-04-07T05:23:56.215Z,1014.49
2023-04-07T05:24:26.842Z,1014.49
2023-04-07T05:24:57.780Z,1014.49
2023-04-07T05:25:29.334Z,1014.49
2023-04-07T05:26:00.255Z,1014.39
2023-04-07T05:26:30.886Z,1014.39
2023-04-07T05:27:01.969Z,1014.59
2023-04-07T05:27:32.899Z,1014.59
2023-04-07T05:28:03.837Z,1014.39
2023-04-07T05:28:34.805Z,1014.39
2023-04-07T05:29:06.095Z,1014.39
2023-04-07T05:29:36.855Z,1014.39
2023-04-07T05:30:08.724Z,1014.49
2023-04-07T05:30:38.932Z,1014.49
2023-04-07T05:31:10.066Z,1014.39
2023-04-07T05:31:40.940Z,1014.39
2023-04-07T05:32:12.017Z,1014.39
2023-04-07T05:32:42.869Z,1014.39
2023-04-07T05:33:14.061Z,1014.49
2023-04-07T05:33:44.826Z,1014.49
2023-04-07T05:34:15.864Z,1014.19
2023-04-07T05:34:46.885Z,1014.19
2023-04-07T05:35:18.395Z,1014.39
2023-04-07T05:35:49.830Z,1014.39
2023-04-07T05:36:19.869Z,1014.59
2023-04-07T05:36:52.210Z,1014.59
2023-04-07T05:37:21.881Z,1014.39
2023-04-07T05:37:53.043Z,1014.39
2023-04-07T05:38:23.815Z,1014.59
2023-04-07T05:38:55.220Z,1014.59
2023-04-07T05:39:25.815Z,1014.59
2023-04-07T05:39:56.856Z,1014.59
2023-04-07T05:40:29.097Z,1014.49
2023-04-07T05:40:59.512Z,1014.39
2023-04-07T05:41:30.264Z,1014.39
2023-04-07T05:42:00.924Z,1014.59
2023-04-07T05:42:32.078Z,1014.59
2023-04-07T05:43:02.920Z,1014.49
2023-04-07T05:43:34.163Z,1014.49
2023-04-07T05:44:05.063Z,1014.49
2023-04-07T05:44:36.552Z,1014.49
2023-04-07T05:45:08.049Z,1014.49
2023-04-07T05:45:37.872Z,1014.49
2023-04-07T05:46:09.384Z,1014.49
2023-04-07T05:46:40.120Z,1014.49
2023-04-07T05:47:10.816Z,1014.49
2023-04-07T05:47:42.022Z,1014.49
2023-04-07T05:48:12.937Z,1014.59
2023-04-07T05:48:44.182Z,1014.59
2023-04-07T05:49:46.116Z,1014.59
2023-04-07T05:50:17.654Z,1014.49
2023-04-07T05:50:48.229Z,1014.49
2023-04-07T05:51:19.239Z,1014.29
2023-04-07T05:51:49.861Z,1014.29
2023-04-07T05:52:21.155Z,1014.49
2023-04-07T05:52:52.158Z,1014.49
2023-04-07T05:53:23.369Z,1014.59
2023-04-07T05:53:54.257Z,1014.59
2023-04-07T05:54:24.892Z,1014.19
2023-04-07T05:54:55.852Z,1014.19
2023-04-07T05:55:27.470Z,1014.39
2023-04-07T05:55:59.096Z,1014.39
2023-04-07T05:56:28.980Z,1014.59
2023-04-07T05:56:59.983Z,1014.49
2023-04-07T05:57:30.932Z,1014.49
2023-04-07T05:58:02.184Z,1014.49
2023-04-07T05:58:32.927Z,1014.49
2023-04-07T05:59:03.872Z,1014.49
2023-04-07T05:59:35.021Z,1014.49
2023-04-07T06:00:06.622Z,1014.29
2023-04-07T06:00:37.140Z,1014.29
2023-04-07T06:01:07.909Z,1014.59
2023-04-07T06:01:39.462Z,1014.59
2023-04-07T06:02:10.461Z,1014.29
2023-04-07T06:02:41.010Z,1014.29
2023-04-07T06:03:11.974Z,1014.09
2023-04-07T06:03:43.324Z,1014.09
2023-04-07T06:04:14.145Z,1014.49
2023-04-07T06:04:44.899Z,1014.49
2023-04-07T06:05:16.409Z,1014.49
2023-04-07T06:05:47.292Z,1014.49
2023-04-07T06:06:18.067Z,1014.29
2023-04-07T06:06:48.931Z,1014.29
2023-04-07T06:07:21.632Z,1014.39
2023-04-07T06:07:51.065Z,1014.39
2023-04-07T06:08:23.571Z,1014.29
2023-04-07T06:08:53.224Z,1014.29
2023-04-07T06:09:24.337Z,1014.39
2023-04-07T06:09:54.894Z,1014.39
2023-04-07T06:10:26.925Z,1014.49
2023-04-07T06:10:57.130Z,1014.49
2023-04-07T06:11:28.213Z,1014.49
2023-04-07T06:11:59.063Z,1014.29
2023-04-07T06:12:30.191Z,1014.29
2023-04-07T06:13:01.230Z,1014.49
2023-04-07T06:13:32.603Z,1014.49
2023-04-07T06:14:03.009Z,1014.59
2023-04-07T06:14:34.187Z,1014.59
2023-04-07T06:15:05.783Z,1014.39
2023-04-07T06:15:36.505Z,1014.39
2023-04-07T06:16:06.992Z,1014.29